createdAt,value
2022-10-11T00:03:09.695Z,33.22
2022-10-11T00:07:55.324Z,28.63
2022-10-11T00:12:40.713Z,37.17
2022-10-11T00:17:26.119Z,27.75
2022-10-11T00:22:14.061Z,28.45
2022-10-11T00:26:59.322Z,25.75
2022-10-11T00:31:44.689Z,24.13
2022-10-11T00:36:29.887Z,26.60
2022-10-11T00:41:19.069Z,24.80
2022-10-11T00:46:24.103Z,33.30
2022-10-11T00:51:20.101Z,29.40
2022-10-11T00:56:09.926Z,30.77
2022-10-11T01:00:58.050Z,32.40
2022-10-11T01:05:43.428Z,32.42
2022-10-11T01:10:29.317Z,30.30
2022-10-11T01:15:23.038Z,34.63
2022-10-11T01:20:38.607Z,34.80
2022-10-11T01:25:32.891Z,36.90
2022-10-11T01:30:27.462Z,38.10
2022-10-11T01:35:20.681Z,32.67
2022-10-11T01:40:10.373Z,31.27
2022-10-11T01:44:57.443Z,28.20
2022-10-11T01:49:46.319Z,33.33
2022-10-11T01:55:09.221Z,27.83
2022-10-11T02:00:03.655Z,28.20
2022-10-11T02:04:56.331Z,27.40
2022-10-11T02:09:48.325Z,37.35
2022-10-11T02:14:37.293Z,32.67
2022-10-11T02:19:29.379Z,30.85
2022-10-11T02:24:21.325Z,34.92
2022-10-11T02:29:11.032Z,33.20
2022-10-11T02:34:02.991Z,33.53
2022-10-11T02:38:52.864Z,31.33
2022-10-11T02:43:43.727Z,32.13
2022-10-11T02:48:30.251Z,32.33
2022-10-11T02:53:15.270Z,26.35
2022-10-11T02:58:00.663Z,30.35
2022-10-11T03:02:48.301Z,27.48
2022-10-11T03:07:33.910Z,30.70
2022-10-11T03:12:19.083Z,26.10
2022-10-11T03:17:30.950Z,25.27
2022-10-11T03:22:12.247Z,26.63
2022-10-11T03:26:57.909Z,29.33
2022-10-11T03:31:43.188Z,24.80
2022-10-11T03:36:28.230Z,24.88
2022-10-11T03:41:16.240Z,26.60
2022-10-11T03:46:01.440Z,26.95
2022-10-11T03:50:46.931Z,26.75
2022-10-11T03:55:32.223Z,22.70
2022-10-11T04:00:20.598Z,26.05
2022-10-11T04:05:06.725Z,27.70
2022-10-11T04:09:52.943Z,24.35
2022-10-11T04:14:37.987Z,25.05
2022-10-11T04:19:25.876Z,24.42
2022-10-11T04:24:12.655Z,19.80
2022-10-11T04:28:58.111Z,22.83
2022-10-11T04:33:43.189Z,23.85
2022-10-11T04:38:31.195Z,19.80
2022-10-11T04:43:16.942Z,23.67
2022-10-11T04:48:02.296Z,20.70
2022-10-11T04:52:47.393Z,21.42
2022-10-11T04:57:35.479Z,21.63
2022-10-11T05:02:22.419Z,23.10
2022-10-11T05:07:08.032Z,20.67
2022-10-11T05:11:53.035Z,22.95
2022-10-11T05:16:40.932Z,22.75
2022-10-11T05:21:27.984Z,22.73
2022-10-11T05:26:13.701Z,21.00
2022-10-11T05:30:59.023Z,20.58
2022-10-11T05:35:47.047Z,26.77
2022-10-11T05:40:33.520Z,30.95
2022-10-11T05:45:18.951Z,24.42
2022-10-11T05:50:04.028Z,25.02
2022-10-11T05:54:52.203Z,26.98
2022-10-11T05:59:38.520Z,27.08
2022-10-11T06:04:23.832Z,24.52
2022-10-11T06:09:08.853Z,24.50
2022-10-11T06:13:58.127Z,24.42
2022-10-11T06:18:44.017Z,25.30
2022-10-11T06:23:29.344Z,28.73
2022-10-11T06:28:14.419Z,27.02
2022-10-11T06:33:04.766Z,32.30
2022-10-11T06:37:51.508Z,25.73
2022-10-11T06:42:36.781Z,30.80
2022-10-11T06:47:21.884Z,28.98
2022-10-11T06:52:09.842Z,24.33
2022-10-11T06:56:54.863Z,28.23
2022-10-11T07:01:40.276Z,28.95
2022-10-11T07:06:27.422Z,34.90
2022-10-11T07:11:17.551Z,30.02
2022-10-11T07:16:04.526Z,27.05
2022-10-11T07:20:50.135Z,26.15
2022-10-11T07:25:35.176Z,24.35
2022-10-11T07:30:23.206Z,24.85
2022-10-11T07:35:09.069Z,29.05
2022-10-11T07:39:54.348Z,28.65
2022-10-11T07:44:39.450Z,30.77
2022-10-11T07:49:27.378Z,27.60
2022-10-11T07:54:12.491Z,30.63
2022-10-11T07:58:59.454Z,28.30
2022-10-11T08:03:44.506Z,32.85
2022-10-11T08:08:32.623Z,33.53
2022-10-11T08:13:17.769Z,40.47
2022-10-11T08:18:03.266Z,32.10
2022-10-11T08:22:48.327Z,45.20
2022-10-11T08:27:36.612Z,29.55
2022-10-11T08:32:21.632Z,33.10
2022-10-11T08:37:07.144Z,32.20
2022-10-11T08:41:57.635Z,33.35
2022-10-11T08:46:48.901Z,30.25
2022-10-11T08:51:37.199Z,34.60
2022-10-11T08:56:23.986Z,35.45
2022-10-11T09:01:16.719Z,31.05
2022-10-11T09:06:16.772Z,27.38
2022-10-11T09:11:08.939Z,25.48
2022-10-11T09:20:59.562Z,27.60
2022-10-11T09:25:56.124Z,30.70
2022-10-11T09:30:51.121Z,32.45
2022-10-11T09:35:41.447Z,29.73
2022-10-11T09:40:41.446Z,30.80
2022-10-11T09:45:29.368Z,30.25
2022-10-11T09:50:20.032Z,28.30
2022-10-11T09:55:06.395Z,26.38
2022-10-11T10:00:06.535Z,23.55
2022-10-11T10:05:20.133Z,29.77
2022-10-11T10:10:32.037Z,28.52
2022-10-11T10:15:22.079Z,24.08
2022-10-11T10:20:07.858Z,23.63
2022-10-11T10:24:57.032Z,24.20
2022-10-11T10:29:42.137Z,22.55
2022-10-11T10:34:32.440Z,28.08
2022-10-11T10:39:32.260Z,17.77
2022-10-11T10:44:20.224Z,26.92
2022-10-11T10:54:31.912Z,21.30
2022-10-11T10:59:37.926Z,20.08
2022-10-11T11:04:32.233Z,20.85
2022-10-11T11:09:30.054Z,21.67
2022-10-11T11:14:30.958Z,20.27
2022-10-11T11:19:29.924Z,19.83
2022-10-11T11:24:27.046Z,16.98
2022-10-11T11:29:31.830Z,17.58
2022-10-11T11:34:24.499Z,16.73
2022-10-11T11:39:16.640Z,21.45
2022-10-11T11:44:06.108Z,22.35
2022-10-11T11:48:56.676Z,24.85
2022-10-11T11:53:57.214Z,19.10
2022-10-11T11:58:51.702Z,25.27
2022-10-11T12:03:41.949Z,19.73
2022-10-11T12:08:34.763Z,21.17
2022-10-11T12:13:26.303Z,18.63
2022-10-11T12:18:19.591Z,22.60
2022-10-11T12:23:07.370Z,17.13
2022-10-11T12:27:57.818Z,21.10
2022-10-11T12:32:55.836Z,27.60
2022-10-11T12:37:54.332Z,16.10
2022-10-11T12:42:40.017Z,16.70
2022-10-11T12:47:43.065Z,17.50
2022-10-11T12:52:37.003Z,16.88
2022-10-11T12:57:47.963Z,16.98
2022-10-11T13:02:43.055Z,17.47
2022-10-11T13:07:28.217Z,17.20
2022-10-11T13:12:18.891Z,18.08
2022-10-11T13:17:11.193Z,18.17
2022-10-11T13:22:01.182Z,16.70
2022-10-11T13:26:48.656Z,15.65
2022-10-11T13:31:34.142Z,16.75
2022-10-11T13:36:21.304Z,18.88
2022-10-11T13:41:12.250Z,19.20
2022-10-11T13:45:58.885Z,19.27
2022-10-11T13:50:51.268Z,20.92
2022-10-11T13:55:38.611Z,17.27
2022-10-11T14:00:33.819Z,19.55
2022-10-11T14:05:27.032Z,18.35
2022-10-11T14:10:23.520Z,15.23
2022-10-11T14:15:10.142Z,10.75
2022-10-11T14:20:17.499Z,19.58
2022-10-11T14:25:02.832Z,17.10
2022-10-11T14:30:06.171Z,23.08
2022-10-11T14:34:54.174Z,15.73
2022-10-11T14:39:41.944Z,16.42
2022-10-11T14:44:27.563Z,15.98
2022-10-11T14:49:17.512Z,14.50
2022-10-11T14:54:02.840Z,14.85
2022-10-11T14:58:50.657Z,14.73
2022-10-11T15:03:36.565Z,10.52
2022-10-11T15:08:21.619Z,11.75
2022-10-11T15:13:07.623Z,14.00
2022-10-11T15:17:57.405Z,17.35
2022-10-11T15:22:42.768Z,15.35
2022-10-11T15:27:28.862Z,12.63
2022-10-11T15:32:14.153Z,15.10
2022-10-11T15:37:01.829Z,11.20
2022-10-11T15:41:47.146Z,11.93
2022-10-11T15:46:32.265Z,10.20
2022-10-11T15:51:18.056Z,9.20
2022-10-11T15:56:08.749Z,11.40
2022-10-11T16:00:56.806Z,16.83
2022-10-11T16:05:42.682Z,10.38
2022-10-11T16:10:28.376Z,9.95
2022-10-11T16:15:17.180Z,15.32
2022-10-11T16:20:02.602Z,12.02
2022-10-11T16:24:47.792Z,14.70
2022-10-11T16:29:33.117Z,10.75
2022-10-11T16:34:20.809Z,14.98
2022-10-11T16:39:09.885Z,12.15
2022-10-11T16:43:55.652Z,12.15
2022-10-11T16:48:41.027Z,12.43
2022-10-11T16:53:28.671Z,12.65
2022-10-11T16:58:13.982Z,12.88
2022-10-11T17:02:59.184Z,14.18
2022-10-11T17:07:44.544Z,12.68
2022-10-11T17:12:35.757Z,15.02
2022-10-11T17:17:21.995Z,11.48
2022-10-11T17:22:07.104Z,14.48
2022-10-11T17:26:52.429Z,12.85
2022-10-11T17:31:41.984Z,12.63
2022-10-11T17:36:34.173Z,14.20
2022-10-11T17:41:19.770Z,16.88
2022-10-11T17:46:09.057Z,13.77
2022-10-11T17:50:57.087Z,12.35
2022-10-11T17:55:44.707Z,14.52
2022-10-11T18:00:29.760Z,16.75
2022-10-11T18:05:16.879Z,16.65
2022-10-11T18:10:04.522Z,13.40
2022-10-11T18:14:51.434Z,15.18
2022-10-11T18:19:36.473Z,13.98
2022-10-11T18:24:21.823Z,13.32
2022-10-11T18:29:09.545Z,16.08
2022-10-11T18:33:56.096Z,12.65
2022-10-11T18:38:44.002Z,14.20
2022-10-11T18:43:29.325Z,17.05
2022-10-11T18:48:16.992Z,21.05
2022-10-11T18:53:02.303Z,20.13
2022-10-11T18:57:47.435Z,13.68
2022-10-11T19:02:35.830Z,16.95
2022-10-11T19:07:24.007Z,14.75
2022-10-11T19:12:09.649Z,14.68
2022-10-11T19:16:56.271Z,13.60
2022-10-11T19:21:42.069Z,15.50
2022-10-11T19:26:33.751Z,16.70
2022-10-11T19:31:19.722Z,12.80
2022-10-11T19:36:07.397Z,14.40
2022-10-11T19:40:53.211Z,13.20
2022-10-11T19:45:41.071Z,16.58
2022-10-11T19:50:26.412Z,15.70
2022-10-11T19:55:12.644Z,16.35
2022-10-11T19:59:58.131Z,15.82
2022-10-11T20:04:52.365Z,11.52
2022-10-11T20:09:38.562Z,18.63
2022-10-11T20:14:23.726Z,15.10
2022-10-11T20:19:08.989Z,14.48
2022-10-11T20:24:01.582Z,18.40
2022-10-11T20:28:49.454Z,18.23
2022-10-11T20:33:37.898Z,15.50
2022-10-11T20:38:23.442Z,16.17
2022-10-11T20:43:11.127Z,15.73
2022-10-11T20:47:56.511Z,18.70
2022-10-11T20:52:41.651Z,16.30
2022-10-11T20:57:27.120Z,15.88
2022-10-11T21:02:18.990Z,14.18
2022-10-11T21:07:04.789Z,16.77
2022-10-11T21:11:49.826Z,13.23
2022-10-11T21:16:36.747Z,15.98
2022-10-11T21:21:24.894Z,15.45
2022-10-11T21:26:12.277Z,19.65
2022-10-11T21:30:57.331Z,19.88
2022-10-11T21:35:43.104Z,15.85
2022-10-11T21:40:30.916Z,20.48
2022-10-11T21:45:16.763Z,16.65
2022-10-11T21:50:02.064Z,18.60
2022-10-11T21:54:47.376Z,17.80
2022-10-11T21:59:35.027Z,17.20
2022-10-11T22:04:20.389Z,19.15
2022-10-11T22:09:06.733Z,20.10
2022-10-11T22:13:52.247Z,17.05
2022-10-11T22:18:45.152Z,20.95
2022-10-11T22:23:30.202Z,21.33
2022-10-11T22:28:15.636Z,21.20
2022-10-11T22:33:02.073Z,25.13
2022-10-11T22:37:50.934Z,18.10
2022-10-11T22:42:36.015Z,16.38
2022-10-11T22:47:21.519Z,17.23
2022-10-11T22:52:06.630Z,23.55
2022-10-11T22:56:54.562Z,16.85
2022-10-11T23:01:39.682Z,19.02
2022-10-11T23:06:25.041Z,24.17
2022-10-11T23:11:10.924Z,19.48
2022-10-11T23:15:59.052Z,22.33
2022-10-11T23:20:44.138Z,23.10
2022-10-11T23:25:29.523Z,24.13
2022-10-11T23:30:16.349Z,26.55
2022-10-11T23:35:04.295Z,27.83
2022-10-11T23:39:49.384Z,23.92
2022-10-11T23:44:34.730Z,23.77
2022-10-11T23:49:19.798Z,24.90
2022-10-11T23:54:07.823Z,25.60
2022-10-11T23:58:52.891Z,28.10
